Time;durP1;ratioP1;P1;durP2;ratioP2;P2;SDS_P1;SDS_P2;PMS_P1;PMS_P2;Temp;Humidity;BMP_temperature;BMP_pressure;BME280_temperature;BME280_humidity;BME280_pressure;Samples;Min_cycle;Max_cycle;Signal;HPM_P1;HPM_P2
2021/11/27 00:01:39;;;;;;;28.00;13.53;;;2.40;99.90;;;;;;4456114;32;20181;-64
2021/11/27 00:04:07;;;;;;;26.87;13.43;;;2.40;99.90;;;;;;4457458;32;20230;-63
2021/11/27 00:06:34;;;;;;;27.43;13.20;;;2.30;99.90;;;;;;4458501;32;20391;-64
2021/11/27 00:09:04;;;;;;;23.63;12.60;;;2.30;99.90;;;;;;4457375;32;20169;-63
2021/11/27 00:11:31;;;;;;;24.03;12.93;;;2.30;99.90;;;;;;4457157;32;20223;-64
2021/11/27 00:13:58;;;;;;;25.33;12.57;;;2.30;99.90;;;;;;4452634;32;20512;-64
2021/11/27 00:16:26;;;;;;;24.33;12.43;;;2.30;99.90;;;;;;4454512;32;20174;-64
2021/11/27 00:18:53;;;;;;;24.57;12.47;;;2.30;99.90;;;;;;4457409;32;20472;-64
2021/11/27 00:21:21;;;;;;;24.37;12.80;;;2.30;99.90;;;;;;4456760;32;20192;-64
2021/11/27 00:23:49;;;;;;;23.23;11.93;;;2.20;99.90;;;;;;4450052;32;20448;-64
2021/11/27 00:26:18;;;;;;;24.30;12.83;;;2.30;99.90;;;;;;4430890;32;20466;-64
2021/11/27 00:28:47;;;;;;;23.47;11.90;;;2.30;99.90;;;;;;4437699;32;20190;-64
2021/11/27 00:31:20;;;;;;;21.93;12.33;;;2.20;99.90;;;;;;4433166;32;20241;-64
2021/11/27 00:33:47;;;;;;;23.80;12.33;;;2.20;99.90;;;;;;4433033;32;20235;-64
2021/11/27 00:36:14;;;;;;;25.07;12.97;;;2.20;99.90;;;;;;4433456;32;20193;-64
2021/11/27 00:38:42;;;;;;;23.87;12.50;;;2.10;99.90;;;;;;4434292;32;20182;-63
2021/11/27 00:41:12;;;;;;;23.70;12.13;;;2.10;99.90;;;;;;4433358;32;20488;-63
2021/11/27 00:43:40;;;;;;;24.83;12.47;;;2.10;99.90;;;;;;4431065;32;20434;-64
2021/11/27 00:46:07;;;;;;;24.67;13.23;;;2.00;99.90;;;;;;4432099;32;20426;-64
2021/11/27 00:48:35;;;;;;;24.00;12.40;;;2.00;99.90;;;;;;4434712;32;20212;-64
2021/11/27 00:51:12;;;;;;;21.40;12.87;;;2.00;99.90;;;;;;4432518;32;20185;-64
2021/11/27 00:53:40;;;;;;;22.87;13.43;;;2.00;99.90;;;;;;4432639;32;20223;-64
2021/11/27 00:56:08;;;;;;;24.30;12.20;;;1.90;99.90;;;;;;4430921;32;20190;-64
2021/11/27 00:58:36;;;;;;;23.33;12.30;;;1.90;99.90;;;;;;4434590;32;20210;-63
2021/11/27 01:01:09;;;;;;;23.00;13.17;;;1.90;99.90;;;;;;4431064;32;20170;-64
2021/11/27 01:03:39;;;;;;;26.47;13.27;;;1.80;99.90;;;;;;4417796;32;20504;-63
2021/11/27 01:06:09;;;;;;;26.17;13.40;;;1.80;99.90;;;;;;4431394;32;20202;-63
2021/11/27 01:08:37;;;;;;;25.63;12.73;;;1.80;99.90;;;;;;4429230;32;20197;-63
2021/11/27 01:11:31;;;;;;;26.43;13.20;;;1.70;99.90;;;;;;4431275;32;20186;-63
2021/11/27 01:14:05;;;;;;;24.50;12.70;;;1.70;99.90;;;;;;4437837;32;20243;-63
2021/11/27 01:16:36;;;;;;;23.40;12.57;;;1.60;99.90;;;;;;4439986;32;20218;-63
2021/11/27 01:19:04;;;;;;;22.60;12.77;;;1.50;99.90;;;;;;4439181;32;20175;-64
2021/11/27 01:21:33;;;;;;;23.80;12.83;;;1.50;99.90;;;;;;4440980;32;20190;-65
2021/11/27 01:24:05;;;;;;;23.37;12.70;;;1.50;99.90;;;;;;4439397;32;20208;-64
2021/11/27 01:26:34;;;;;;;22.33;12.77;;;1.50;99.90;;;;;;4440200;32;20162;-64
2021/11/27 01:29:03;;;;;;;23.17;13.13;;;1.60;99.90;;;;;;4439480;32;20174;-64
2021/11/27 01:31:30;;;;;;;22.50;12.50;;;1.60;99.90;;;;;;4438669;32;20178;-64
2021/11/27 01:33:58;;;;;;;24.57;12.77;;;1.50;99.90;;;;;;4444747;32;20245;-64
2021/11/27 01:36:25;;;;;;;22.33;12.27;;;1.50;99.90;;;;;;4443358;32;20216;-64
2021/11/27 01:38:53;;;;;;;24.47;12.83;;;1.60;99.90;;;;;;4450437;32;20209;-64
2021/11/27 01:41:20;;;;;;;24.60;12.63;;;1.50;99.90;;;;;;4454481;32;20207;-64
2021/11/27 01:43:50;;;;;;;23.80;12.47;;;1.50;99.90;;;;;;4454829;32;20177;-64
2021/11/27 01:46:18;;;;;;;22.80;12.33;;;1.50;99.90;;;;;;4454503;32;20204;-64
2021/11/27 01:48:45;;;;;;;24.93;13.00;;;1.50;99.90;;;;;;4454778;32;20197;-65
2021/11/27 01:51:19;;;;;;;23.00;12.10;;;1.50;99.90;;;;;;4455609;32;20201;-64
2021/11/27 01:53:54;;;;;;;22.67;12.70;;;1.50;99.90;;;;;;4454225;32;20220;-64
2021/11/27 01:56:27;;;;;;;21.83;11.30;;;1.50;99.90;;;;;;4445017;32;20166;-64
2021/11/27 01:58:56;;;;;;;21.57;11.63;;;1.60;99.90;;;;;;4436123;32;20195;-64
2021/11/27 02:01:28;;;;;;;22.47;12.10;;;1.60;99.90;;;;;;4439007;32;20196;-64
2021/11/27 02:03:58;;;;;;;21.53;11.50;;;1.60;99.90;;;;;;4438685;32;20262;-63
2021/11/27 02:06:27;;;;;;;20.83;11.87;;;1.70;99.90;;;;;;4438690;32;20213;-65
2021/11/27 02:08:57;;;;;;;19.43;10.93;;;1.60;99.90;;;;;;4429955;32;20209;-65
2021/11/27 02:11:31;;;;;;;20.03;11.60;;;1.60;99.90;;;;;;4439555;32;20190;-64
2021/11/27 02:13:59;;;;;;;20.70;11.13;;;1.70;99.90;;;;;;4438430;32;20256;-64
2021/11/27 02:16:28;;;;;;;18.00;10.50;;;1.70;99.90;;;;;;4438962;32;20219;-64
2021/11/27 02:18:55;;;;;;;22.10;10.97;;;1.80;99.90;;;;;;4438401;32;20262;-64
2021/11/27 02:21:23;;;;;;;18.57;10.70;;;1.70;99.90;;;;;;4439967;32;20512;-63
2021/11/27 02:23:52;;;;;;;20.23;11.53;;;1.80;99.90;;;;;;4439303;32;20436;-63
2021/11/27 02:26:24;;;;;;;17.87;10.27;;;1.80;99.90;;;;;;4439663;32;20174;-64
2021/11/27 02:28:55;;;;;;;17.33;10.17;;;1.70;99.90;;;;;;4439663;32;20224;-64
2021/11/27 02:31:24;;;;;;;17.47;10.10;;;1.80;99.90;;;;;;4437920;32;20186;-64
2021/11/27 02:33:52;;;;;;;16.83;9.90;;;1.80;99.90;;;;;;4438460;32;20175;-64
2021/11/27 02:36:19;;;;;;;17.77;10.23;;;1.90;99.90;;;;;;4438756;32;20170;-63
2021/11/27 02:38:47;;;;;;;17.30;10.00;;;1.90;99.90;;;;;;4438857;32;20513;-64
2021/11/27 02:41:15;;;;;;;17.63;10.10;;;1.90;99.90;;;;;;4441130;32;20390;-65
2021/11/27 02:43:42;;;;;;;17.80;10.40;;;1.90;99.90;;;;;;4438554;32;20205;-64
2021/11/27 02:46:09;;;;;;;18.93;10.23;;;1.90;99.90;;;;;;4437900;32;20277;-64
2021/11/27 02:48:36;;;;;;;18.10;10.17;;;1.90;99.90;;;;;;4439183;32;20174;-64
2021/11/27 02:51:04;;;;;;;18.93;9.73;;;1.90;99.90;;;;;;4439610;32;20178;-64
2021/11/27 02:53:32;;;;;;;17.43;9.63;;;1.80;99.90;;;;;;4439115;32;20178;-64
2021/11/27 02:56:01;;;;;;;18.87;10.07;;;1.80;99.90;;;;;;4439746;32;20197;-64
2021/11/27 02:58:28;;;;;;;16.07;9.33;;;1.80;99.90;;;;;;4439350;32;20269;-64
2021/11/27 03:00:58;;;;;;;15.83;9.40;;;1.80;99.90;;;;;;4439194;32;20168;-64
2021/11/27 03:03:27;;;;;;;16.53;9.67;;;1.70;99.90;;;;;;4439963;32;20235;-64
2021/11/27 03:05:54;;;;;;;15.73;8.57;;;1.70;99.90;;;;;;4438412;32;20238;-64
2021/11/27 03:08:22;;;;;;;14.93;8.87;;;1.70;99.90;;;;;;4438566;32;20192;-64
2021/11/27 03:10:49;;;;;;;14.37;8.53;;;1.70;99.90;;;;;;4438056;32;20230;-64
2021/11/27 03:13:23;;;;;;;15.93;8.57;;;1.70;99.90;;;;;;4439523;32;20260;-64
2021/11/27 03:15:50;;;;;;;12.90;7.73;;;1.80;99.90;;;;;;4439033;32;20184;-64
2021/11/27 03:18:18;;;;;;;12.73;7.77;;;1.70;99.90;;;;;;4439757;32;20174;-64
2021/11/27 03:20:45;;;;;;;11.43;7.37;;;1.70;99.90;;;;;;4437629;32;20181;-64
2021/11/27 03:23:13;;;;;;;13.13;7.80;;;1.70;99.90;;;;;;4439715;32;20246;-64
2021/11/27 03:25:40;;;;;;;13.87;7.80;;;1.70;99.90;;;;;;4440492;32;20182;-63
2021/11/27 03:28:08;;;;;;;12.37;7.60;;;1.70;99.90;;;;;;4440861;32;20170;-64
2021/11/27 03:30:35;;;;;;;12.47;7.20;;;1.60;99.90;;;;;;4441203;32;20178;-64
2021/11/27 03:33:02;;;;;;;12.17;7.57;;;1.50;99.90;;;;;;4441746;32;20201;-64
2021/11/27 03:35:30;;;;;;;12.67;7.80;;;1.30;99.90;;;;;;4441530;32;20194;-64
2021/11/27 03:37:57;;;;;;;12.73;7.20;;;1.30;99.90;;;;;;4441263;32;20258;-64
2021/11/27 03:40:25;;;;;;;12.90;7.27;;;1.40;99.90;;;;;;4441722;32;20197;-64
2021/11/27 03:42:53;;;;;;;13.10;7.63;;;1.40;99.90;;;;;;4440774;32;20262;-64
2021/11/27 03:45:22;;;;;;;14.53;8.40;;;1.50;99.90;;;;;;4441107;32;20237;-64
2021/11/27 03:48:07;;;;;;;13.97;8.17;;;1.60;99.90;;;;;;4441712;32;20175;-63
2021/11/27 03:50:39;;;;;;;13.00;7.80;;;1.60;99.90;;;;;;4440935;32;20181;-64
2021/11/27 03:53:08;;;;;;;13.57;7.57;;;1.60;99.90;;;;;;4440669;32;20235;-63
2021/11/27 03:55:36;;;;;;;13.93;8.43;;;1.60;99.90;;;;;;4441212;32;20253;-63
2021/11/27 03:58:03;;;;;;;14.03;8.60;;;1.60;99.90;;;;;;4441088;32;20228;-64
2021/11/27 04:00:31;;;;;;;14.97;8.33;;;1.60;99.90;;;;;;4441085;32;20218;-63
2021/11/27 04:02:59;;;;;;;14.97;8.57;;;1.50;99.90;;;;;;4441330;32;20171;-63
2021/11/27 04:05:27;;;;;;;12.87;7.90;;;1.50;99.90;;;;;;4441309;32;20171;-64
2021/11/27 04:07:57;;;;;;;14.03;8.23;;;1.50;99.90;;;;;;4441634;32;20193;-64
2021/11/27 04:10:26;;;;;;;13.97;8.47;;;1.60;99.90;;;;;;4441200;32;20225;-64
2021/11/27 04:12:53;;;;;;;13.37;8.53;;;1.50;99.90;;;;;;4441074;32;20182;-64
2021/11/27 04:15:20;;;;;;;14.80;9.00;;;1.50;99.90;;;;;;4443815;32;20139;-64
2021/11/27 04:17:49;;;;;;;16.83;8.87;;;1.50;99.90;;;;;;4441923;32;20254;-64
2021/11/27 04:20:16;;;;;;;14.50;8.37;;;1.50;99.90;;;;;;4440166;32;20532;-64
2021/11/27 04:22:44;;;;;;;14.80;8.43;;;1.50;99.90;;;;;;4440225;32;20178;-64
2021/11/27 04:25:12;;;;;;;15.50;8.93;;;1.50;99.90;;;;;;4442212;32;20170;-64
2021/11/27 04:27:39;;;;;;;17.60;9.80;;;1.50;99.90;;;;;;4440105;32;20182;-64
2021/11/27 04:30:14;;;;;;;17.97;9.57;;;1.40;99.90;;;;;;4440542;32;20243;-64
2021/11/27 04:32:42;;;;;;;18.33;9.43;;;1.30;99.90;;;;;;4439755;32;20230;-64
2021/11/27 04:35:09;;;;;;;18.57;9.83;;;1.40;99.90;;;;;;4442814;32;20146;-63
2021/11/27 04:37:36;;;;;;;18.37;9.63;;;1.30;99.90;;;;;;4440600;32;20190;-64
2021/11/27 04:40:05;;;;;;;18.70;10.73;;;1.30;99.90;;;;;;4440305;32;20436;-64
2021/11/27 04:42:34;;;;;;;20.80;11.23;;;1.20;99.90;;;;;;4440893;32;20551;-64
2021/11/27 04:45:04;;;;;;;22.37;11.23;;;1.20;99.90;;;;;;4441577;32;20237;-64
2021/11/27 04:47:31;;;;;;;23.60;11.00;;;1.20;99.90;;;;;;4441808;32;20200;-64
2021/11/27 04:49:58;;;;;;;23.30;11.73;;;1.20;99.90;;;;;;4440240;32;20224;-64
2021/11/27 04:52:26;;;;;;;24.07;12.27;;;1.20;99.90;;;;;;4441212;32;20147;-64
2021/11/27 04:54:53;;;;;;;25.20;11.87;;;1.20;99.90;;;;;;4441078;32;20285;-64
2021/11/27 04:57:20;;;;;;;25.50;11.80;;;1.20;99.90;;;;;;4439817;32;20179;-64
2021/11/27 04:59:47;;;;;;;26.33;12.30;;;1.20;99.90;;;;;;4440029;32;20265;-64
2021/11/27 05:02:14;;;;;;;28.80;12.50;;;1.10;99.90;;;;;;4442229;32;20142;-64
2021/11/27 05:04:42;;;;;;;23.83;12.07;;;1.10;99.90;;;;;;4440187;32;20186;-64
2021/11/27 05:07:09;;;;;;;24.43;12.17;;;1.00;99.90;;;;;;4440041;32;20181;-63
2021/11/27 05:09:36;;;;;;;23.43;11.80;;;1.10;99.90;;;;;;4439430;32;20530;-64
2021/11/27 05:12:04;;;;;;;26.63;11.93;;;1.10;99.90;;;;;;4440379;32;20183;-63
2021/11/27 05:14:31;;;;;;;25.03;11.70;;;1.10;99.90;;;;;;4440073;32;20190;-64
2021/11/27 05:16:58;;;;;;;23.43;12.07;;;1.10;99.90;;;;;;4439488;32;20214;-64
2021/11/27 05:19:25;;;;;;;21.73;10.93;;;1.10;99.90;;;;;;4440106;32;20170;-64
2021/11/27 05:21:52;;;;;;;25.33;11.77;;;1.10;99.90;;;;;;4439089;32;20182;-64
2021/11/27 05:24:20;;;;;;;25.37;11.27;;;1.10;99.90;;;;;;4439467;32;20190;-64
2021/11/27 05:26:47;;;;;;;23.50;11.73;;;1.10;99.90;;;;;;4439553;32;20177;-64
2021/11/27 05:29:14;;;;;;;26.03;12.20;;;1.10;99.90;;;;;;4439218;32;20253;-64
2021/11/27 05:31:42;;;;;;;24.43;12.17;;;1.10;99.90;;;;;;4440830;32;20170;-63
2021/11/27 05:36:40;;;;;;;26.47;12.50;;;1.20;99.90;;;;;;4439058;32;20227;-63
2021/11/27 05:39:07;;;;;;;25.40;12.23;;;1.20;99.90;;;;;;4442210;32;20177;-63
2021/11/27 05:41:34;;;;;;;27.43;13.10;;;1.10;99.90;;;;;;4439528;32;20166;-64
2021/11/27 05:44:02;;;;;;;28.13;13.10;;;1.20;99.90;;;;;;4440385;32;20206;-64
2021/11/27 05:46:29;;;;;;;26.60;12.57;;;1.20;99.90;;;;;;4440616;32;20272;-64
2021/11/27 05:48:56;;;;;;;29.83;13.30;;;1.30;99.90;;;;;;4438637;32;20177;-64
2021/11/27 05:51:23;;;;;;;28.17;13.10;;;1.30;99.90;;;;;;4441024;32;20167;-64
2021/11/27 05:53:51;;;;;;;27.10;12.20;;;1.20;99.90;;;;;;4438753;32;20174;-63
2021/11/27 05:56:18;;;;;;;27.77;13.17;;;1.20;99.90;;;;;;4439238;32;20206;-63
2021/11/27 05:58:45;;;;;;;26.67;13.03;;;1.10;99.90;;;;;;4438762;32;20244;-65
2021/11/27 06:01:12;;;;;;;30.50;13.60;;;1.10;99.90;;;;;;4438955;32;20178;-64
2021/11/27 06:03:39;;;;;;;29.53;13.23;;;1.10;99.90;;;;;;4438703;32;20170;-63
2021/11/27 06:06:06;;;;;;;33.13;13.93;;;1.10;99.90;;;;;;4440474;32;20429;-64
2021/11/27 06:08:33;;;;;;;30.30;14.13;;;1.10;99.90;;;;;;4440731;32;20173;-64
2021/11/27 06:11:01;;;;;;;33.50;14.87;;;1.10;99.90;;;;;;4439517;32;20183;-64
2021/11/27 06:13:28;;;;;;;36.17;15.50;;;1.00;99.90;;;;;;4440009;32;20220;-64
2021/11/27 06:15:55;;;;;;;41.07;15.50;;;0.90;99.90;;;;;;4440225;32;20194;-64
2021/11/27 06:18:23;;;;;;;41.63;16.77;;;1.00;99.90;;;;;;4439388;32;20174;-64
2021/11/27 06:20:50;;;;;;;40.00;17.07;;;1.00;99.90;;;;;;4439087;32;20182;-64
2021/11/27 06:23:17;;;;;;;37.37;17.17;;;1.00;99.90;;;;;;4439927;32;20191;-64
2021/11/27 06:25:44;;;;;;;36.73;16.53;;;1.00;99.90;;;;;;4440354;32;20203;-64
2021/11/27 06:28:11;;;;;;;33.93;15.93;;;1.00;99.90;;;;;;4438632;32;20174;-64
2021/11/27 06:30:41;;;;;;;35.67;14.80;;;1.00;99.90;;;;;;4438882;32;20302;-64
2021/11/27 06:33:08;;;;;;;33.77;14.40;;;1.00;99.90;;;;;;4439476;32;20185;-64
2021/11/27 06:35:35;;;;;;;32.23;14.43;;;1.00;99.90;;;;;;4441099;32;20139;-64
2021/11/27 06:38:03;;;;;;;31.13;14.33;;;0.90;99.90;;;;;;4438818;32;20177;-64
2021/11/27 06:40:30;;;;;;;31.57;14.67;;;0.90;99.90;;;;;;4427879;32;20228;-64
2021/11/27 06:43:01;;;;;;;34.00;14.93;;;1.00;99.90;;;;;;4440324;32;20177;-64
2021/11/27 06:45:29;;;;;;;30.97;14.57;;;0.90;99.90;;;;;;4438065;32;20178;-64
2021/11/27 06:47:57;;;;;;;33.40;15.00;;;1.00;99.90;;;;;;4438846;32;20174;-63
2021/11/27 06:50:24;;;;;;;32.30;14.90;;;0.90;99.90;;;;;;4438360;32;20229;-64
2021/11/27 06:52:52;;;;;;;31.03;14.07;;;1.00;99.90;;;;;;4439586;32;20226;-65
2021/11/27 06:55:19;;;;;;;35.00;15.47;;;0.90;99.90;;;;;;4439750;32;20214;-64
2021/11/27 06:57:46;;;;;;;35.40;14.00;;;1.00;99.90;;;;;;4439209;32;20181;-63
2021/11/27 07:00:14;;;;;;;36.17;15.70;;;0.90;99.90;;;;;;4440020;32;20201;-64
2021/11/27 07:02:41;;;;;;;34.10;14.53;;;0.90;99.90;;;;;;4437544;32;20177;-64
2021/11/27 07:05:08;;;;;;;31.70;14.80;;;0.90;99.90;;;;;;4439182;32;20215;-64
2021/11/27 07:07:35;;;;;;;33.53;15.20;;;0.90;99.90;;;;;;4438328;32;20173;-64
2021/11/27 07:10:04;;;;;;;30.03;14.13;;;0.90;99.90;;;;;;4438919;32;20165;-64
2021/11/27 07:12:37;;;;;;;34.47;15.03;;;0.90;99.90;;;;;;4438912;32;20171;-63
2021/11/27 07:15:05;;;;;;;32.40;14.53;;;0.90;99.90;;;;;;4439149;32;20246;-64
2021/11/27 07:17:33;;;;;;;33.80;15.13;;;0.90;99.90;;;;;;4438116;32;20170;-64
2021/11/27 07:20:02;;;;;;;37.13;15.67;;;0.90;99.90;;;;;;4439696;32;20197;-64
2021/11/27 07:22:29;;;;;;;34.50;14.73;;;0.90;99.90;;;;;;4439085;32;20228;-64
2021/11/27 07:24:57;;;;;;;37.33;16.60;;;0.90;99.90;;;;;;4439169;32;20166;-64
2021/11/27 07:27:24;;;;;;;37.07;15.70;;;0.90;99.90;;;;;;4438951;32;20178;-64
2021/11/27 07:29:51;;;;;;;37.73;16.47;;;1.00;99.90;;;;;;4438820;32;20190;-64
2021/11/27 07:32:21;;;;;;;37.70;16.20;;;0.90;99.90;;;;;;4437792;32;20568;-63
2021/11/27 07:34:48;;;;;;;40.63;16.70;;;1.00;99.90;;;;;;4438211;32;20246;-64
2021/11/27 07:37:16;;;;;;;37.40;17.13;;;1.00;99.90;;;;;;4437866;32;20226;-64
2021/11/27 07:39:43;;;;;;;42.20;18.23;;;1.00;99.90;;;;;;4438699;32;20167;-64
2021/11/27 07:42:10;;;;;;;41.97;17.70;;;0.90;99.90;;;;;;4439068;32;20193;-64
2021/11/27 07:44:37;;;;;;;46.27;18.97;;;1.00;99.90;;;;;;4438959;32;20166;-64
2021/11/27 07:47:04;;;;;;;43.23;18.60;;;1.00;99.90;;;;;;4440193;32;20441;-63
2021/11/27 07:49:31;;;;;;;49.23;20.00;;;0.90;99.90;;;;;;4439558;32;20361;-63
2021/11/27 07:51:58;;;;;;;52.87;20.73;;;0.90;99.90;;;;;;4437984;32;20174;-63
2021/11/27 07:54:25;;;;;;;54.17;20.67;;;0.90;99.90;;;;;;4439275;32;20186;-64
2021/11/27 07:56:53;;;;;;;59.70;22.30;;;0.90;99.90;;;;;;4437325;32;20396;-63
2021/11/27 07:59:20;;;;;;;52.03;22.07;;;0.90;99.90;;;;;;4438406;32;20237;-64
2021/11/27 08:01:47;;;;;;;58.90;21.23;;;0.90;99.90;;;;;;4438924;32;20186;-64
2021/11/27 08:04:15;;;;;;;60.00;22.57;;;1.00;99.90;;;;;;4438460;32;20190;-63
2021/11/27 08:06:42;;;;;;;61.60;22.83;;;1.00;99.90;;;;;;4438573;32;20432;-64
2021/11/27 08:09:09;;;;;;;65.83;23.47;;;1.00;99.90;;;;;;4437802;32;20217;-63
2021/11/27 08:11:36;;;;;;;67.47;24.67;;;1.00;99.90;;;;;;4438174;32;20174;-64
2021/11/27 08:14:04;;;;;;;64.20;24.03;;;1.00;99.90;;;;;;4441240;32;20220;-64
2021/11/27 08:16:31;;;;;;;62.87;23.20;;;1.10;99.90;;;;;;4429544;32;20182;-64
2021/11/27 08:18:58;;;;;;;61.57;23.43;;;1.10;99.90;;;;;;4440930;32;20174;-64
2021/11/27 08:21:26;;;;;;;63.80;23.83;;;1.20;99.90;;;;;;4440809;32;20170;-64
2021/11/27 08:23:53;;;;;;;63.13;24.03;;;1.20;99.90;;;;;;4440702;32;20239;-64
2021/11/27 08:26:21;;;;;;;63.90;24.50;;;1.30;99.90;;;;;;4441627;32;20178;-64
2021/11/27 08:28:48;;;;;;;61.53;24.00;;;1.30;99.90;;;;;;4440243;32;20216;-64
2021/11/27 08:31:15;;;;;;;61.10;23.67;;;1.30;99.90;;;;;;4442008;32;20146;-64
2021/11/27 08:33:43;;;;;;;65.17;23.77;;;1.30;99.90;;;;;;4439715;32;20193;-64
2021/11/27 08:36:10;;;;;;;59.00;23.17;;;1.30;99.90;;;;;;4440190;32;20551;-64
2021/11/27 08:38:37;;;;;;;55.63;23.03;;;1.30;99.90;;;;;;4441906;32;20170;-64
2021/11/27 08:41:07;;;;;;;55.20;22.43;;;1.30;99.90;;;;;;4440263;32;20163;-64
2021/11/27 08:43:36;;;;;;;54.60;21.93;;;1.30;99.90;;;;;;4440296;32;20162;-64
2021/11/27 08:46:03;;;;;;;55.30;21.90;;;1.30;99.90;;;;;;4439570;32;20228;-64
2021/11/27 08:48:35;;;;;;;54.10;20.77;;;1.30;99.90;;;;;;4439685;32;20204;-64
2021/11/27 08:51:04;;;;;;;51.80;20.87;;;1.30;99.90;;;;;;4439992;32;20372;-65
2021/11/27 08:53:33;;;;;;;52.93;21.03;;;1.30;99.90;;;;;;4440040;32;20246;-64
2021/11/27 08:56:00;;;;;;;49.57;20.00;;;1.30;99.90;;;;;;4439814;32;20166;-64
2021/11/27 08:58:27;;;;;;;48.87;19.37;;;1.30;99.90;;;;;;4440919;32;20170;-64
2021/11/27 09:00:54;;;;;;;48.37;20.10;;;1.30;99.90;;;;;;4440010;32;20229;-64
2021/11/27 09:03:22;;;;;;;49.23;19.73;;;1.30;99.90;;;;;;4440652;32;20216;-64
2021/11/27 09:05:49;;;;;;;49.13;20.57;;;1.30;99.90;;;;;;4441326;32;20435;-64
2021/11/27 09:08:16;;;;;;;47.97;20.73;;;1.40;99.90;;;;;;4441245;32;20178;-64
2021/11/27 09:10:44;;;;;;;45.27;19.50;;;1.40;99.90;;;;;;4439885;32;20178;-64
2021/11/27 09:13:12;;;;;;;47.30;19.67;;;1.40;99.90;;;;;;4441221;32;20197;-64
2021/11/27 09:15:39;;;;;;;52.37;21.27;;;1.40;99.90;;;;;;4441105;32;20212;-64
2021/11/27 09:18:09;;;;;;;54.33;20.77;;;1.40;99.90;;;;;;4440882;32;20212;-64
2021/11/27 09:20:37;;;;;;;59.63;21.93;;;1.40;99.90;;;;;;4439793;32;20179;-64
2021/11/27 09:23:06;;;;;;;55.43;20.30;;;1.30;99.90;;;;;;4439200;32;20219;-64
2021/11/27 09:25:33;;;;;;;48.63;20.43;;;1.30;99.90;;;;;;4439804;32;20182;-64
2021/11/27 09:28:00;;;;;;;58.43;21.17;;;1.30;99.90;;;;;;4440214;32;20174;-64
2021/11/27 09:30:30;;;;;;;55.70;21.80;;;1.40;99.90;;;;;;4439404;32;20178;-64
2021/11/27 09:32:58;;;;;;;55.07;21.37;;;1.40;99.90;;;;;;4441867;32;20164;-64
2021/11/27 09:35:25;;;;;;;56.50;22.00;;;1.40;99.90;;;;;;4439063;32;20566;-64
2021/11/27 09:37:53;;;;;;;57.50;21.10;;;1.40;99.90;;;;;;4438922;32;20527;-64
2021/11/27 09:40:20;;;;;;;61.17;22.43;;;1.40;99.90;;;;;;4439126;32;20209;-64
2021/11/27 09:42:54;;;;;;;60.10;21.17;;;1.30;99.90;;;;;;4438544;32;20524;-64
2021/11/27 09:45:26;;;;;;;57.23;21.37;;;1.30;99.90;;;;;;4439010;32;20170;-64
2021/11/27 09:47:55;;;;;;;62.20;22.83;;;1.30;99.90;;;;;;4439279;32;20175;-64
2021/11/27 09:50:23;;;;;;;57.83;21.83;;;1.30;99.90;;;;;;4439472;32;20222;-64
2021/11/27 09:52:52;;;;;;;58.77;22.43;;;1.30;99.90;;;;;;4438156;32;20185;-64
2021/11/27 09:55:20;;;;;;;60.03;22.53;;;1.30;99.90;;;;;;4440236;32;20178;-64
2021/11/27 09:57:49;;;;;;;58.93;22.50;;;1.40;99.90;;;;;;4439859;32;20148;-64
2021/11/27 10:00:18;;;;;;;58.23;22.07;;;1.40;99.90;;;;;;4440196;32;20227;-64
2021/11/27 10:02:53;;;;;;;61.60;23.07;;;1.30;99.90;;;;;;4439729;32;20258;-64
2021/11/27 10:05:22;;;;;;;59.17;22.03;;;1.40;99.90;;;;;;4438363;32;20618;-64
2021/11/27 10:07:50;;;;;;;57.93;22.67;;;1.40;99.90;;;;;;4440640;32;20173;-64
2021/11/27 10:10:18;;;;;;;54.13;21.67;;;1.40;99.90;;;;;;4438626;32;20175;-64
2021/11/27 10:12:46;;;;;;;56.17;21.37;;;1.40;99.90;;;;;;4441752;32;20145;-64
2021/11/27 10:15:14;;;;;;;54.03;20.50;;;1.40;99.90;;;;;;4438541;32;20185;-64
2021/11/27 10:17:42;;;;;;;56.03;20.87;;;1.40;99.90;;;;;;4440324;32;20258;-64
2021/11/27 10:20:10;;;;;;;54.33;19.63;;;1.40;99.90;;;;;;4440448;32;20462;-64
2021/11/27 10:22:42;;;;;;;50.17;19.77;;;1.40;99.90;;;;;;4439767;32;20223;-64
2021/11/27 10:25:30;;;;;;;49.60;19.63;;;1.40;99.90;;;;;;4438492;32;20189;-64
2021/11/27 10:28:13;;;;;;;52.43;19.53;;;1.50;99.90;;;;;;4439737;32;20215;-63
2021/11/27 10:30:46;;;;;;;53.50;19.43;;;1.50;99.90;;;;;;4438802;32;20231;-64
2021/11/27 10:33:14;;;;;;;48.90;18.63;;;1.60;99.90;;;;;;4438614;32;20422;-64
2021/11/27 10:35:56;;;;;;;45.00;17.80;;;1.60;99.90;;;;;;4439854;32;20186;-64
2021/11/27 10:38:38;;;;;;;45.97;18.40;;;1.50;99.90;;;;;;4437864;32;20178;-64
2021/11/27 10:41:06;;;;;;;46.53;18.27;;;1.40;99.90;;;;;;4439997;32;20204;-64
2021/11/27 10:43:34;;;;;;;49.07;19.00;;;1.40;99.90;;;;;;4438367;32;20204;-64
2021/11/27 10:46:31;;;;;;;53.70;19.63;;;1.50;99.90;;;;;;4438072;32;20265;-64
2021/11/27 10:49:00;;;;;;;47.23;18.77;;;1.50;99.90;;;;;;4438746;32;20215;-64
2021/11/27 10:51:28;;;;;;;52.27;19.37;;;1.50;99.90;;;;;;4439671;32;20174;-64
2021/11/27 10:54:06;;;;;;;54.13;19.57;;;1.50;99.90;;;;;;4439432;32;20217;-64
2021/11/27 10:56:45;;;;;;;48.13;20.10;;;1.50;99.90;;;;;;4439044;32;20199;-64
2021/11/27 10:59:14;;;;;;;53.13;20.00;;;1.60;99.90;;;;;;4439241;32;20603;-64
2021/11/27 11:02:00;;;;;;;50.97;19.20;;;1.50;99.90;;;;;;4439346;32;20197;-64
2021/11/27 11:04:28;;;;;;;44.27;18.27;;;1.50;99.90;;;;;;4439536;32;20217;-64
2021/11/27 11:07:19;;;;;;;45.00;18.63;;;1.50;99.90;;;;;;4439481;32;20178;-64
2021/11/27 11:10:06;;;;;;;49.00;18.83;;;1.60;99.90;;;;;;4440675;32;20139;-64
2021/11/27 11:12:43;;;;;;;41.93;18.23;;;1.50;99.90;;;;;;4438156;32;20193;-64
2021/11/27 11:15:17;;;;;;;43.73;18.23;;;1.60;99.90;;;;;;4438902;32;20209;-64
2021/11/27 11:17:46;;;;;;;43.30;17.37;;;1.60;99.90;;;;;;4425004;32;20575;-64
2021/11/27 11:20:22;;;;;;;45.53;18.27;;;1.60;99.90;;;;;;4438399;32;20178;-65
2021/11/27 11:23:04;;;;;;;43.37;17.30;;;1.70;99.90;;;;;;4439598;32;20208;-64
2021/11/27 11:25:38;;;;;;;41.93;18.43;;;1.70;99.90;;;;;;4424739;32;20528;-64
2021/11/27 11:28:14;;;;;;;39.87;17.17;;;1.70;99.90;;;;;;4437596;32;20236;-64
2021/11/27 11:30:44;;;;;;;41.33;18.10;;;1.70;99.90;;;;;;4439113;32;20185;-64
2021/11/27 11:33:14;;;;;;;42.90;19.07;;;1.70;99.90;;;;;;4437685;32;20204;-64
2021/11/27 11:35:41;;;;;;;41.23;18.47;;;1.70;99.90;;;;;;4437450;32;20181;-64
2021/11/27 11:38:11;;;;;;;37.73;17.50;;;1.80;99.90;;;;;;4438118;32;20182;-64
2021/11/27 11:40:40;;;;;;;34.97;16.23;;;1.80;99.90;;;;;;4438793;32;20170;-64
2021/11/27 11:43:08;;;;;;;39.70;17.00;;;1.80;99.90;;;;;;4438139;32;20233;-63
2021/11/27 11:45:36;;;;;;;38.77;17.67;;;1.80;99.90;;;;;;4439981;32;20151;-63
2021/11/27 11:48:05;;;;;;;34.67;15.53;;;1.90;99.90;;;;;;4440529;32;20167;-64
2021/11/27 11:50:44;;;;;;;37.50;15.70;;;1.80;99.90;;;;;;4441512;32;20547;-64
2021/11/27 11:53:34;;;;;;;36.33;16.33;;;1.90;99.90;;;;;;4441886;32;20205;-63
2021/11/27 11:56:07;;;;;;;35.70;15.50;;;1.90;99.90;;;;;;4442135;32;20209;-64
2021/11/27 11:58:38;;;;;;;34.17;15.80;;;1.90;99.90;;;;;;4442005;32;20256;-64
2021/11/27 12:01:15;;;;;;;32.67;15.57;;;2.00;99.90;;;;;;4441398;32;20143;-64
2021/11/27 12:03:44;;;;;;;32.57;14.60;;;2.00;99.90;;;;;;4429127;32;20178;-64
2021/11/27 12:06:13;;;;;;;32.03;14.30;;;2.00;99.90;;;;;;4442565;32;20236;-64
2021/11/27 12:08:51;;;;;;;30.90;14.03;;;2.00;99.90;;;;;;4440760;32;20213;-63
2021/11/27 12:11:53;;;;;;;31.13;14.53;;;2.00;99.90;;;;;;4440921;32;20534;-64
2021/11/27 12:14:24;;;;;;;27.47;14.17;;;2.00;99.90;;;;;;4442064;32;20206;-64
2021/11/27 12:17:14;;;;;;;25.03;12.27;;;2.10;99.90;;;;;;4442156;32;20453;-64
2021/11/27 12:19:46;;;;;;;26.33;11.83;;;2.10;99.90;;;;;;4441863;32;20213;-63
2021/11/27 12:22:23;;;;;;;24.63;11.97;;;2.20;99.90;;;;;;4441806;32;20435;-64
2021/11/27 12:25:28;;;;;;;23.47;10.93;;;2.10;99.90;;;;;;4440068;32;20194;-64
2021/11/27 12:28:05;;;;;;;22.30;10.63;;;2.10;99.90;;;;;;4441922;32;20183;-64
2021/11/27 12:30:44;;;;;;;20.90;10.47;;;2.20;99.90;;;;;;4441535;32;20169;-64
2021/11/27 12:33:43;;;;;;;21.17;10.20;;;2.20;99.90;;;;;;4441530;32;20193;-63
2021/11/27 12:36:26;;;;;;;21.00;9.97;;;2.30;99.90;;;;;;4440110;32;20202;-63
2021/11/27 12:39:10;;;;;;;21.43;9.77;;;2.40;99.90;;;;;;4440314;32;20201;-64
2021/11/27 12:41:39;;;;;;;17.73;8.73;;;2.40;99.90;;;;;;4441463;32;20170;-64
2021/11/27 12:44:45;;;;;;;18.77;9.30;;;2.40;99.90;;;;;;4440052;32;20178;-63
2021/11/27 12:47:12;;;;;;;18.03;8.93;;;2.50;99.90;;;;;;4439518;32;20209;-64
2021/11/27 12:49:39;;;;;;;15.67;8.27;;;2.50;99.90;;;;;;4436015;32;20602;-64
2021/11/27 12:52:24;;;;;;;14.97;8.13;;;2.50;99.90;;;;;;4436936;32;20212;-63
2021/11/27 12:54:54;;;;;;;20.00;8.60;;;2.50;99.90;;;;;;4441067;32;20229;-64